Vaagtrans — LAIZ — position and weather

sailwx.info

Track history (hours):
 
Tides and Currents Weather Stations Pressure Air Temp Water Temp Dewpoint Dewpoint Depression Visibility Wind Speed Wind Dir Waves Ship Positions

Vaagtrans

Last reported at 2014-May-27 19:33 UTC. Time now 2014-Aug-01 01:41 UTC.
Position N 66°09' E 012°25'.
Warning: this ship's position is months out of date.

Length 40 m; draft 5.5 m.

Type: Ship. MMSI: 258274000.

Date/timePositionNaut miles runAvg speedWind from/ knotsBaromVisibWave heightAir tempDewpointWater temp
2014-May-27 19:33N 66°09' E 012°25'5 9.4
2014-May-27 19:04N 66°14' E 012°25'510.0
2014-May-27 18:33N 66°19' E 012°23'3 6.8
2014-May-27 18:04N 66°22' E 012°23'0 0.0
2014-May-27 17:33N 66°22' E 012°23'0 0.0
2014-May-27 17:04N 66°22' E 012°23'0 0.0
2014-May-27 16:33N 66°22' E 012°23'0 0.0
2014-May-27 16:04N 66°22' E 012°23'0 0.0
2014-May-27 15:33N 66°22' E 012°23'0 0.0
2014-May-27 15:04N 66°22' E 012°23'0 0.0
2014-May-27 14:33N 66°22' E 012°23'0 0.0
2014-May-27 14:04N 66°22' E 012°23'0 0.0
2014-May-27 13:33N 66°22' E 012°23'0 0.0
2014-May-27 13:04N 66°22' E 012°23'0 0.0
2014-May-27 12:33N 66°22' E 012°23'0 0.0
2014-May-27 12:04N 66°22' E 012°23'0 0.0
2014-May-27 11:33N 66°22' E 012°23'0 0.0
2014-May-27 11:04N 66°22' E 012°23'0 0.0
2014-May-27 10:33N 66°22' E 012°23'0 0.0
2014-May-27 10:04N 66°22' E 012°23'0 0.0
2014-May-27 09:33N 66°22' E 012°23'0 0.2
2014-May-27 09:04N 66°22' E 012°22'0 0.0
2014-May-27 08:33N 66°22' E 012°22'0 0.1
2014-May-27 07:33N 66°22' E 012°23'0 0.0
2014-May-27 07:04N 66°22' E 012°23'0 0.0
2014-May-27 06:33N 66°22' E 012°23'0 0.0
2014-May-27 06:04N 66°22' E 012°23'0 0.0
2014-May-27 05:33N 66°22' E 012°23'0 0.0
2014-May-27 04:33N 66°22' E 012°23'0 0.0
2014-May-27 04:04N 66°22' E 012°23'0 0.0
2014-May-27 03:33N 66°22' E 012°23'18 5.8
2014-May-27 00:31N 66°37' E 012°47'27 9.2
2014-May-26 21:35N 66°58' E 013°30'1 9.1
2014-May-26 21:28N 66°58' E 013°32'13 9.5
2014-May-26 20:04N 67°07' E 013°57'1 2.5
2014-May-26 19:33N 67°08' E 013°59'0 0.0
2014-May-26 19:03N 67°08' E 013°59'2 4.7
2014-May-26 18:34N 67°10' E 014°02'510.0
2014-May-26 18:05N 67°15' E 014°06'5 9.6
2014-May-26 17:33N 67°20' E 014°07'2010.0
2014-May-26 15:36N 67°39' E 014°11'2 9.9
2014-May-26 15:24N 67°41' E 014°11'155 7.1
2014-May-25 17:33N 69°37' E 018°55'5 0.1
2014-May-24 00:27N 69°42' E 019°03'6 0.5
2014-May-23 11:20N 69°37' E 018°54'3 3.9
2014-May-23 10:34N 69°40' E 018°58'1 0.7
2014-May-23 09:24N 69°40' E 018°59'0 0.0
2014-May-23 06:32N 69°40' E 018°59'0 0.2
2014-May-23 05:33N 69°40' E 018°59'94 9.4
2014-May-22 19:31N 70°31' E 022°53'9 9.2
2014-May-22 18:34N 70°37' E 023°11'9 9.2
2014-May-22 17:34N 70°45' E 023°27'3 0.2
2014-May-22 04:07N 70°44' E 023°35'610.8
2014-May-22 03:33N 70°39' E 023°23'1110.6
2014-May-22 02:32N 70°32' E 023°00'96 5.7
2014-May-21 09:34N 69°41' E 019°01'1 0.8
2014-May-21 08:33N 69°40' E 018°59'0 0.0
2014-May-21 07:32N 69°40' E 018°59'0 0.0
2014-May-21 06:32N 69°40' E 018°59'0 0.0
2014-May-21 05:34N 69°40' E 018°59'0 0.0
2014-May-21 04:34N 69°40' E 018°59'0 0.0
2014-May-21 03:34N 69°40' E 018°59'0 0.0
2014-May-21 02:34N 69°40' E 018°59'0 0.0
2014-May-21 01:34N 69°40' E 018°59'0 0.0
2014-May-21 00:33N 69°40' E 018°59'0 0.0
2014-May-20 23:34N 69°40' E 018°59'0 0.0
2014-May-20 22:34N 69°40' E 018°59'0 0.0
2014-May-20 21:34N 69°40' E 018°59'0 0.0
2014-May-20 20:34N 69°40' E 018°59'0 0.0
2014-May-20 19:34N 69°40' E 018°59'0 0.0
2014-May-20 18:34N 69°40' E 018°59'0 0.0
2014-May-20 17:34N 69°40' E 018°59'0 0.0
2014-May-20 16:34N 69°40' E 018°59'0 0.0
2014-May-20 15:33N 69°40' E 018°59'0 0.0
2014-May-20 14:34N 69°40' E 018°59'0 0.0
2014-May-20 13:33N 69°40' E 018°59'0 0.0
2014-May-20 11:16N 69°40' E 018°59'0 0.0
2014-May-20 10:20N 69°40' E 018°59'0 0.0
2014-May-20 09:18N 69°40' E 018°59'0 0.0
2014-May-20 08:18N 69°40' E 018°59'0 0.0
2014-May-20 07:22N 69°40' E 018°59'0 0.0
2014-May-20 06:32N 69°40' E 018°59'0 0.0
2014-May-20 05:33N 69°40' E 018°59'0 0.0
2014-May-20 04:33N 69°40' E 018°59'  
Track history (hours):
 
Tides and Currents Weather Stations Pressure Air Temp Water Temp Dewpoint Dewpoint Depression Visibility Wind Speed Wind Dir Waves Ship Positions

Vaagtrans

Last reported at 2014-May-27 19:33 UTC. Time now 2014-Aug-01 01:41 UTC.
Position N 66°09' E 012°25'.
Warning: this ship's position is months out of date.

Length 40 m; draft 5.5 m.

Type: Ship. MMSI: 258274000.

Date/timePositionNaut miles runAvg speedWind from/ knotsBaromVisibWave heightAir tempDewpointWater temp
2014-May-27 19:33N 66°09' E 012°25'5 9.4
2014-May-27 19:04N 66°14' E 012°25'510.0
2014-May-27 18:33N 66°19' E 012°23'3 6.8
2014-May-27 18:04N 66°22' E 012°23'0 0.0
2014-May-27 17:33N 66°22' E 012°23'0 0.0
2014-May-27 17:04N 66°22' E 012°23'0 0.0
2014-May-27 16:33N 66°22' E 012°23'0 0.0
2014-May-27 16:04N 66°22' E 012°23'0 0.0
2014-May-27 15:33N 66°22' E 012°23'0 0.0
2014-May-27 15:04N 66°22' E 012°23'0 0.0
2014-May-27 14:33N 66°22' E 012°23'0 0.0
2014-May-27 14:04N 66°22' E 012°23'0 0.0
2014-May-27 13:33N 66°22' E 012°23'0 0.0
2014-May-27 13:04N 66°22' E 012°23'0 0.0
2014-May-27 12:33N 66°22' E 012°23'0 0.0
2014-May-27 12:04N 66°22' E 012°23'0 0.0
2014-May-27 11:33N 66°22' E 012°23'0 0.0
2014-May-27 11:04N 66°22' E 012°23'0 0.0
2014-May-27 10:33N 66°22' E 012°23'0 0.0
2014-May-27 10:04N 66°22' E 012°23'0 0.0
2014-May-27 09:33N 66°22' E 012°23'0 0.2
2014-May-27 09:04N 66°22' E 012°22'0 0.0
2014-May-27 08:33N 66°22' E 012°22'0 0.1
2014-May-27 07:33N 66°22' E 012°23'0 0.0
2014-May-27 07:04N 66°22' E 012°23'0 0.0
2014-May-27 06:33N 66°22' E 012°23'0 0.0
2014-May-27 06:04N 66°22' E 012°23'0 0.0
2014-May-27 05:33N 66°22' E 012°23'0 0.0
2014-May-27 04:33N 66°22' E 012°23'0 0.0
2014-May-27 04:04N 66°22' E 012°23'0 0.0
2014-May-27 03:33N 66°22' E 012°23'18 5.8
2014-May-27 00:31N 66°37' E 012°47'27 9.2
2014-May-26 21:35N 66°58' E 013°30'1 9.1
2014-May-26 21:28N 66°58' E 013°32'13 9.5
2014-May-26 20:04N 67°07' E 013°57'1 2.5
2014-May-26 19:33N 67°08' E 013°59'0 0.0
2014-May-26 19:03N 67°08' E 013°59'2 4.7
2014-May-26 18:34N 67°10' E 014°02'510.0
2014-May-26 18:05N 67°15' E 014°06'5 9.6
2014-May-26 17:33N 67°20' E 014°07'2010.0
2014-May-26 15:36N 67°39' E 014°11'2 9.9
2014-May-26 15:24N 67°41' E 014°11'155 7.1
2014-May-25 17:33N 69°37' E 018°55'5 0.1
2014-May-24 00:27N 69°42' E 019°03'6 0.5
2014-May-23 11:20N 69°37' E 018°54'3 3.9
2014-May-23 10:34N 69°40' E 018°58'1 0.7
2014-May-23 09:24N 69°40' E 018°59'0 0.0
2014-May-23 06:32N 69°40' E 018°59'0 0.2
2014-May-23 05:33N 69°40' E 018°59'94 9.4
2014-May-22 19:31N 70°31' E 022°53'9 9.2
2014-May-22 18:34N 70°37' E 023°11'9 9.2
2014-May-22 17:34N 70°45' E 023°27'3 0.2
2014-May-22 04:07N 70°44' E 023°35'610.8
2014-May-22 03:33N 70°39' E 023°23'1110.6
2014-May-22 02:32N 70°32' E 023°00'96 5.7
2014-May-21 09:34N 69°41' E 019°01'1 0.8
2014-May-21 08:33N 69°40' E 018°59'0 0.0
2014-May-21 07:32N 69°40' E 018°59'0 0.0
2014-May-21 06:32N 69°40' E 018°59'0 0.0
2014-May-21 05:34N 69°40' E 018°59'0 0.0
2014-May-21 04:34N 69°40' E 018°59'0 0.0
2014-May-21 03:34N 69°40' E 018°59'0 0.0
2014-May-21 02:34N 69°40' E 018°59'0 0.0
2014-May-21 01:34N 69°40' E 018°59'0 0.0
2014-May-21 00:33N 69°40' E 018°59'0 0.0
2014-May-20 23:34N 69°40' E 018°59'0 0.0
2014-May-20 22:34N 69°40' E 018°59'0 0.0
2014-May-20 21:34N 69°40' E 018°59'0 0.0
2014-May-20 20:34N 69°40' E 018°59'0 0.0
2014-May-20 19:34N 69°40' E 018°59'0 0.0
2014-May-20 18:34N 69°40' E 018°59'0 0.0
2014-May-20 17:34N 69°40' E 018°59'0 0.0
2014-May-20 16:34N 69°40' E 018°59'0 0.0
2014-May-20 15:33N 69°40' E 018°59'0 0.0
2014-May-20 14:34N 69°40' E 018°59'0 0.0
2014-May-20 13:33N 69°40' E 018°59'0 0.0
2014-May-20 11:16N 69°40' E 018°59'0 0.0
2014-May-20 10:20N 69°40' E 018°59'0 0.0
2014-May-20 09:18N 69°40' E 018°59'0 0.0
2014-May-20 08:18N 69°40' E 018°59'0 0.0
2014-May-20 07:22N 69°40' E 018°59'0 0.0
2014-May-20 06:32N 69°40' E 018°59'0 0.0
2014-May-20 05:33N 69°40' E 018°59'0 0.0
2014-May-20 04:33N 69°40' E 018°59'  

Dump ship's entire track history